Alta Sierra, California
Current Conditions -  °F | °C
As of 10:40 PM on Monday 20 Oct 2014 (Local Time) from KGOO Reporting Station
Broken Clouds Broken Clouds  
Wind Chill:   Ceiling: 1500
Heat Index:   Visibility: 9mi
Dew Point:   Wind: 0mph
Humidity: 93%   Direction: NA
Pressure: 30.05"   Gusts: NA
Location:  39.2183°N, 120.924°W
Report Text: KGOO 210540Z AUTO 00000KT 9SM FEW003 BKN015 09/08 A3005 RMK AO1
Loading
Personal Weather Stations






























Interactive Weather Map
Tropical Storm Tracking
New forecast layout! Learn more

10-Day Weather Forecast

Advertisements
Track Severe Weather on mobile